sensor_id;sensor_type;location;lat;lon;timestamp;pressure;altitude;pressure_sealevel;temperature;humidity
19005;BME280;9635;52.078;8.648;2023-07-31T00:04:11;99860.25;;;14.79;86.46
19005;BME280;9635;52.078;8.648;2023-07-31T00:09:16;99850.44;;;14.78;87.39
19005;BME280;9635;52.078;8.648;2023-07-31T00:14:19;99837.50;;;14.98;86.79
19005;BME280;9635;52.078;8.648;2023-07-31T00:19:21;99843.25;;;15.03;86.57
19005;BME280;9635;52.078;8.648;2023-07-31T00:24:26;99845.88;;;14.70;88.32
19005;BME280;9635;52.078;8.648;2023-07-31T00:29:29;99827.00;;;14.95;88.82
19005;BME280;9635;52.078;8.648;2023-07-31T00:34:32;99816.84;;;14.89;88.72
19005;BME280;9635;52.078;8.648;2023-07-31T00:39:38;99814.34;;;14.95;88.80
19005;BME280;9635;52.078;8.648;2023-07-31T00:44:41;99807.41;;;15.01;89.10
19005;BME280;9635;52.078;8.648;2023-07-31T00:49:44;99810.28;;;15.08;88.91
19005;BME280;9635;52.078;8.648;2023-07-31T00:54:48;99807.88;;;14.88;90.37
19005;BME280;9635;52.078;8.648;2023-07-31T00:59:51;99805.66;;;14.83;89.90
19005;BME280;9635;52.078;8.648;2023-07-31T01:04:54;99807.56;;;14.91;90.02
19005;BME280;9635;52.078;8.648;2023-07-31T01:10:03;99799.16;;;14.44;91.52
19005;BME280;9635;52.078;8.648;2023-07-31T01:15:08;99808.22;;;14.77;90.17
19005;BME280;9635;52.078;8.648;2023-07-31T01:20:15;99792.75;;;14.45;91.09
19005;BME280;9635;52.078;8.648;2023-07-31T01:25:32;99793.44;;;14.55;91.08
19005;BME280;9635;52.078;8.648;2023-07-31T01:30:44;99779.47;;;14.68;90.23
19005;BME280;9635;52.078;8.648;2023-07-31T01:35:50;99783.44;;;14.39;90.08
19005;BME280;9635;52.078;8.648;2023-07-31T01:40:53;99778.94;;;14.13;90.89
19005;BME280;9635;52.078;8.648;2023-07-31T01:46:01;99770.50;;;14.16;90.08
19005;BME280;9635;52.078;8.648;2023-07-31T01:51:04;99774.03;;;14.17;89.71
19005;BME280;9635;52.078;8.648;2023-07-31T01:56:07;99764.59;;;13.87;91.19
19005;BME280;9635;52.078;8.648;2023-07-31T02:01:11;99776.34;;;14.04;90.69
19005;BME280;9635;52.078;8.648;2023-07-31T02:06:14;99763.78;;;14.29;88.62
19005;BME280;9635;52.078;8.648;2023-07-31T02:11:17;99764.91;;;14.10;87.46
19005;BME280;9635;52.078;8.648;2023-07-31T02:16:21;99753.13;;;13.85;87.95
19005;BME280;9635;52.078;8.648;2023-07-31T02:21:24;99748.19;;;13.72;88.28
19005;BME280;9635;52.078;8.648;2023-07-31T02:26:27;99746.16;;;13.48;89.09
19005;BME280;9635;52.078;8.648;2023-07-31T02:31:31;99738.56;;;13.69;88.55
19005;BME280;9635;52.078;8.648;2023-07-31T02:36:34;99740.00;;;13.56;89.98
19005;BME280;9635;52.078;8.648;2023-07-31T02:41:38;99746.81;;;13.24;91.37
19005;BME280;9635;52.078;8.648;2023-07-31T02:46:42;99733.94;;;13.36;91.23
19005;BME280;9635;52.078;8.648;2023-07-31T02:51:46;99727.59;;;13.27;91.94
19005;BME280;9635;52.078;8.648;2023-07-31T02:56:49;99736.88;;;13.42;91.54
19005;BME280;9635;52.078;8.648;2023-07-31T03:01:53;99736.91;;;13.51;91.93
19005;BME280;9635;52.078;8.648;2023-07-31T03:06:56;99736.34;;;13.39;92.36
19005;BME280;9635;52.078;8.648;2023-07-31T03:12:00;99734.41;;;13.57;91.92
19005;BME280;9635;52.078;8.648;2023-07-31T03:17:05;99725.38;;;13.66;91.77
19005;BME280;9635;52.078;8.648;2023-07-31T03:22:08;99736.00;;;13.68;91.45
19005;BME280;9635;52.078;8.648;2023-07-31T03:27:11;99727.84;;;13.60;92.76
19005;BME280;9635;52.078;8.648;2023-07-31T03:32:15;99727.38;;;13.64;93.81
19005;BME280;9635;52.078;8.648;2023-07-31T03:37:18;99726.97;;;13.51;95.06
19005;BME280;9635;52.078;8.648;2023-07-31T03:42:21;99722.19;;;13.71;95.47
19005;BME280;9635;52.078;8.648;2023-07-31T03:47:26;99717.66;;;13.71;96.86
19005;BME280;9635;52.078;8.648;2023-07-31T03:52:29;99710.47;;;13.88;96.89
19005;BME280;9635;52.078;8.648;2023-07-31T03:57:32;99706.56;;;13.83;100.00
19005;BME280;9635;52.078;8.648;2023-07-31T04:02:36;99703.06;;;13.99;99.09
19005;BME280;9635;52.078;8.648;2023-07-31T04:07:39;99710.75;;;14.20;97.31
19005;BME280;9635;52.078;8.648;2023-07-31T04:12:42;99712.38;;;13.96;99.41
19005;BME280;9635;52.078;8.648;2023-07-31T04:17:46;99709.44;;;13.89;99.57
19005;BME280;9635;52.078;8.648;2023-07-31T04:22:49;99717.81;;;14.12;98.15
19005;BME280;9635;52.078;8.648;2023-07-31T04:27:52;99706.16;;;14.12;97.89
19005;BME280;9635;52.078;8.648;2023-07-31T04:32:56;99702.66;;;13.77;99.49
19005;BME280;9635;52.078;8.648;2023-07-31T04:37:59;99696.44;;;13.85;99.76
19005;BME280;9635;52.078;8.648;2023-07-31T04:43:02;99714.88;;;13.98;99.20
19005;BME280;9635;52.078;8.648;2023-07-31T04:48:06;99709.94;;;13.85;99.66
19005;BME280;9635;52.078;8.648;2023-07-31T04:53:09;99697.91;;;14.13;97.97
19005;BME280;9635;52.078;8.648;2023-07-31T04:58:12;99711.22;;;13.73;99.74
19005;BME280;9635;52.078;8.648;2023-07-31T05:03:16;99717.97;;;13.77;98.58
19005;BME280;9635;52.078;8.648;2023-07-31T05:08:19;99710.91;;;13.76;98.76
19005;BME280;9635;52.078;8.648;2023-07-31T05:13:22;99705.91;;;13.89;98.12
19005;BME280;9635;52.078;8.648;2023-07-31T05:18:26;99713.13;;;13.80;98.81
19005;BME280;9635;52.078;8.648;2023-07-31T05:23:29;99679.19;;;13.69;97.57
19005;BME280;9635;52.078;8.648;2023-07-31T05:28:34;99688.72;;;13.56;98.17
19005;BME280;9635;52.078;8.648;2023-07-31T05:33:39;99701.66;;;13.78;96.69
19005;BME280;9635;52.078;8.648;2023-07-31T05:38:42;99714.44;;;13.76;97.14
19005;BME280;9635;52.078;8.648;2023-07-31T05:43:46;99717.25;;;14.01;94.83
19005;BME280;9635;52.078;8.648;2023-07-31T05:48:50;99714.78;;;14.07;94.62
19005;BME280;9635;52.078;8.648;2023-07-31T05:53:53;99716.75;;;13.97;93.84
19005;BME280;9635;52.078;8.648;2023-07-31T05:58:56;99701.13;;;14.25;92.79
19005;BME280;9635;52.078;8.648;2023-07-31T06:04:00;99704.25;;;14.47;92.17
19005;BME280;9635;52.078;8.648;2023-07-31T06:09:05;99692.16;;;14.08;92.62
19005;BME280;9635;52.078;8.648;2023-07-31T06:14:08;99703.81;;;14.17;92.34
19005;BME280;9635;52.078;8.648;2023-07-31T06:19:12;99704.34;;;14.29;93.07
19005;BME280;9635;52.078;8.648;2023-07-31T06:24:15;99701.81;;;14.19;92.98
19005;BME280;9635;52.078;8.648;2023-07-31T06:29:21;99698.88;;;14.63;92.63
19005;BME280;9635;52.078;8.648;2023-07-31T06:34:26;99709.31;;;14.50;91.73
19005;BME280;9635;52.078;8.648;2023-07-31T06:39:31;99696.63;;;14.42;91.49
19005;BME280;9635;52.078;8.648;2023-07-31T06:44:34;99676.22;;;14.64;90.72
19005;BME280;9635;52.078;8.648;2023-07-31T06:49:39;99676.75;;;14.51;90.77
19005;BME280;9635;52.078;8.648;2023-07-31T06:54:42;99682.16;;;14.51;90.60
19005;BME280;9635;52.078;8.648;2023-07-31T06:59:44;99675.22;;;14.49;92.49
19005;BME280;9635;52.078;8.648;2023-07-31T07:04:49;99675.25;;;14.73;92.54
19005;BME280;9635;52.078;8.648;2023-07-31T07:09:52;99677.94;;;14.73;91.38
19005;BME280;9635;52.078;8.648;2023-07-31T07:14:55;99673.84;;;15.26;90.29
19005;BME280;9635;52.078;8.648;2023-07-31T07:20:00;99687.75;;;14.91;91.45
19005;BME280;9635;52.078;8.648;2023-07-31T07:25:05;99687.72;;;15.07;90.36
19005;BME280;9635;52.078;8.648;2023-07-31T07:30:09;99698.88;;;14.63;92.05
19005;BME280;9635;52.078;8.648;2023-07-31T07:35:13;99676.56;;;14.77;93.13
19005;BME280;9635;52.078;8.648;2023-07-31T07:40:16;99675.03;;;15.24;92.82
19005;BME280;9635;52.078;8.648;2023-07-31T07:45:19;99666.78;;;15.01;93.12
19005;BME280;9635;52.078;8.648;2023-07-31T07:50:23;99659.50;;;14.93;93.12
19005;BME280;9635;52.078;8.648;2023-07-31T07:55:26;99652.44;;;14.92;94.93
19005;BME280;9635;52.078;8.648;2023-07-31T08:00:29;99649.53;;;14.77;94.54
19005;BME280;9635;52.078;8.648;2023-07-31T08:05:33;99669.13;;;14.55;98.23
19005;BME280;9635;52.078;8.648;2023-07-31T08:10:36;99679.28;;;14.77;95.83
19005;BME280;9635;52.078;8.648;2023-07-31T08:15:41;99655.28;;;14.66;98.96
19005;BME280;9635;52.078;8.648;2023-07-31T08:20:45;99644.66;;;14.65;98.14
19005;BME280;9635;52.078;8.648;2023-07-31T08:25:48;99631.47;;;14.53;97.62
19005;BME280;9635;52.078;8.648;2023-07-31T08:30:52;99614.34;;;15.10;96.28
19005;BME280;9635;52.078;8.648;2023-07-31T08:35:56;99613.53;;;14.93;98.28
19005;BME280;9635;52.078;8.648;2023-07-31T08:41:02;99603.66;;;15.41;97.12
19005;BME280;9635;52.078;8.648;2023-07-31T08:46:05;99600.53;;;15.61;96.06
19005;BME280;9635;52.078;8.648;2023-07-31T08:51:10;99601.81;;;15.73;96.36
19005;BME280;9635;52.078;8.648;2023-07-31T08:56:14;99601.03;;;15.64;97.44
19005;BME280;9635;52.078;8.648;2023-07-31T09:01:19;99604.22;;;15.68;98.95
19005;BME280;9635;52.078;8.648;2023-07-31T09:06:25;99598.53;;;15.86;95.06
19005;BME280;9635;52.078;8.648;2023-07-31T09:11:28;99590.94;;;15.81;94.65
19005;BME280;9635;52.078;8.648;2023-07-31T09:16:32;99594.34;;;15.27;95.96
19005;BME280;9635;52.078;8.648;2023-07-31T09:21:47;99597.72;;;15.38;96.82
19005;BME280;9635;52.078;8.648;2023-07-31T09:26:53;99598.09;;;15.26;98.77
19005;BME280;9635;52.078;8.648;2023-07-31T09:31:56;99595.28;;;15.03;98.96
19005;BME280;9635;52.078;8.648;2023-07-31T09:37:02;99600.50;;;15.05;97.08
19005;BME280;9635;52.078;8.648;2023-07-31T09:42:06;99589.25;;;15.33;97.21
19005;BME280;9635;52.078;8.648;2023-07-31T09:47:21;99583.38;;;15.37;97.17
19005;BME280;9635;52.078;8.648;2023-07-31T09:52:28;99587.25;;;15.26;96.75
19005;BME280;9635;52.078;8.648;2023-07-31T09:57:31;99567.50;;;15.97;94.01
19005;BME280;9635;52.078;8.648;2023-07-31T10:02:36;99568.22;;;15.59;94.84
19005;BME280;9635;52.078;8.648;2023-07-31T10:07:42;99572.91;;;15.26;95.77
19005;BME280;9635;52.078;8.648;2023-07-31T10:12:46;99576.56;;;15.50;96.99
19005;BME280;9635;52.078;8.648;2023-07-31T10:17:50;99563.94;;;15.25;99.15
19005;BME280;9635;52.078;8.648;2023-07-31T10:22:56;99576.22;;;15.53;99.09
19005;BME280;9635;52.078;8.648;2023-07-31T10:28:01;99576.63;;;15.73;97.84
19005;BME280;9635;52.078;8.648;2023-07-31T10:33:04;99569.09;;;15.52;98.67
19005;BME280;9635;52.078;8.648;2023-07-31T10:38:11;99563.97;;;15.65;99.90
19005;BME280;9635;52.078;8.648;2023-07-31T10:43:24;99564.22;;;15.47;100.00
19005;BME280;9635;52.078;8.648;2023-07-31T10:48:33;99551.09;;;15.67;99.60
19005;BME280;9635;52.078;8.648;2023-07-31T10:53:38;99554.78;;;15.26;100.00
19005;BME280;9635;52.078;8.648;2023-07-31T10:58:44;99546.69;;;15.66;100.00
19005;BME280;9635;52.078;8.648;2023-07-31T11:03:48;99558.81;;;15.47;99.25
19005;BME280;9635;52.078;8.648;2023-07-31T11:08:55;99548.69;;;15.33;100.00
19005;BME280;9635;52.078;8.648;2023-07-31T11:13:58;99548.72;;;15.24;100.00
19005;BME280;9635;52.078;8.648;2023-07-31T11:19:01;99548.69;;;15.33;100.00
19005;BME280;9635;52.078;8.648;2023-07-31T11:24:05;99544.28;;;15.32;100.00
19005;BME280;9635;52.078;8.648;2023-07-31T11:29:10;99542.25;;;15.73;99.28
19005;BME280;9635;52.078;8.648;2023-07-31T11:34:13;99534.78;;;15.44;100.00
19005;BME280;9635;52.078;8.648;2023-07-31T11:39:18;99539.63;;;15.17;100.00
19005;BME280;9635;52.078;8.648;2023-07-31T11:44:20;99536.72;;;15.19;100.00
19005;BME280;9635;52.078;8.648;2023-07-31T11:49:29;99544.28;;;15.32;100.00
19005;BME280;9635;52.078;8.648;2023-07-31T11:54:36;99546.84;;;15.41;99.23
19005;BME280;9635;52.078;8.648;2023-07-31T11:59:39;99535.47;;;15.46;98.70
19005;BME280;9635;52.078;8.648;2023-07-31T12:04:42;99537.53;;;15.36;100.00
19005;BME280;9635;52.078;8.648;2023-07-31T12:09:53;99520.78;;;15.32;99.72
19005;BME280;9635;52.078;8.648;2023-07-31T12:14:57;99546.47;;;15.44;100.00
19005;BME280;9635;52.078;8.648;2023-07-31T12:20:00;99515.84;;;15.75;100.00
19005;BME280;9635;52.078;8.648;2023-07-31T12:25:04;99525.59;;;15.61;99.70
19005;BME280;9635;52.078;8.648;2023-07-31T12:30:26;99511.16;;;15.69;99.19
19005;BME280;9635;52.078;8.648;2023-07-31T12:35:35;99509.25;;;15.78;98.69
19005;BME280;9635;52.078;8.648;2023-07-31T12:40:40;99509.59;;;15.43;100.00
19005;BME280;9635;52.078;8.648;2023-07-31T12:45:43;99508.88;;;15.58;100.00
19005;BME280;9635;52.078;8.648;2023-07-31T12:50:46;99513.66;;;15.47;100.00
19005;BME280;9635;52.078;8.648;2023-07-31T12:55:50;99507.03;;;15.50;100.00
19005;BME280;9635;52.078;8.648;2023-07-31T13:00:53;99514.00;;;15.44;100.00
19005;BME280;9635;52.078;8.648;2023-07-31T13:05:56;99516.13;;;15.57;100.00
19005;BME280;9635;52.078;8.648;2023-07-31T13:11:00;99516.06;;;15.65;100.00
19005;BME280;9635;52.078;8.648;2023-07-31T13:16:03;99491.94;;;15.56;100.00
19005;BME280;9635;52.078;8.648;2023-07-31T13:21:06;99501.31;;;15.99;100.00
19005;BME280;9635;52.078;8.648;2023-07-31T13:26:10;99497.41;;;16.02;98.91
19005;BME280;9635;52.078;8.648;2023-07-31T13:31:13;99487.22;;;16.27;95.64
19005;BME280;9635;52.078;8.648;2023-07-31T13:36:16;99487.66;;;16.98;91.70
19005;BME280;9635;52.078;8.648;2023-07-31T13:41:20;99478.50;;;16.99;90.52
19005;BME280;9635;52.078;8.648;2023-07-31T13:46:23;99472.22;;;16.69;90.58
19005;BME280;9635;52.078;8.648;2023-07-31T13:51:27;99480.53;;;16.97;89.22
19005;BME280;9635;52.078;8.648;2023-07-31T13:56:31;99458.72;;;17.35;88.63
19005;BME280;9635;52.078;8.648;2023-07-31T14:01:34;99470.47;;;16.76;89.08
19005;BME280;9635;52.078;8.648;2023-07-31T14:06:37;99450.44;;;17.07;87.65
19005;BME280;9635;52.078;8.648;2023-07-31T14:11:41;99430.13;;;17.17;87.05
19005;BME280;9635;52.078;8.648;2023-07-31T14:16:44;99438.84;;;16.98;86.72
19005;BME280;9635;52.078;8.648;2023-07-31T14:21:47;99442.41;;;16.98;86.20
19005;BME280;9635;52.078;8.648;2023-07-31T14:27:11;99437.13;;;17.12;85.64
19005;BME280;9635;52.078;8.648;2023-07-31T14:32:14;99447.25;;;16.88;85.67
19005;BME280;9635;52.078;8.648;2023-07-31T14:37:17;99479.91;;;16.80;86.17
19005;BME280;9635;52.078;8.648;2023-07-31T14:42:21;99456.34;;;16.95;85.64
19005;BME280;9635;52.078;8.648;2023-07-31T14:47:24;99465.13;;;16.83;86.00
19005;BME280;9635;52.078;8.648;2023-07-31T14:52:27;99466.97;;;16.97;86.26
19005;BME280;9635;52.078;8.648;2023-07-31T14:57:31;99478.50;;;16.84;85.07
19005;BME280;9635;52.078;8.648;2023-07-31T15:02:34;99460.63;;;17.04;85.21
19005;BME280;9635;52.078;8.648;2023-07-31T15:07:37;99452.13;;;17.44;83.33
19005;BME280;9635;52.078;8.648;2023-07-31T15:12:42;99462.38;;;17.27;83.94
19005;BME280;9635;52.078;8.648;2023-07-31T15:17:45;99431.50;;;17.64;82.18
19005;BME280;9635;52.078;8.648;2023-07-31T15:22:48;99414.38;;;17.64;82.67
19005;BME280;9635;52.078;8.648;2023-07-31T15:27:52;99399.91;;;17.85;80.65
19005;BME280;9635;52.078;8.648;2023-07-31T15:32:55;99410.16;;;17.83;80.91
19005;BME280;9635;52.078;8.648;2023-07-31T15:37:58;99424.16;;;17.43;81.12
19005;BME280;9635;52.078;8.648;2023-07-31T15:43:02;99419.91;;;17.34;82.59
19005;BME280;9635;52.078;8.648;2023-07-31T15:48:05;99426.69;;;17.45;83.87
19005;BME280;9635;52.078;8.648;2023-07-31T15:53:08;99420.66;;;17.28;83.86
19005;BME280;9635;52.078;8.648;2023-07-31T15:58:12;99422.38;;;17.14;83.79
19005;BME280;9635;52.078;8.648;2023-07-31T16:03:15;99411.16;;;16.88;86.46
19005;BME280;9635;52.078;8.648;2023-07-31T16:08:18;99398.94;;;16.62;89.70
19005;BME280;9635;52.078;8.648;2023-07-31T16:13:23;99393.31;;;16.78;89.01
19005;BME280;9635;52.078;8.648;2023-07-31T16:18:25;99395.19;;;16.63;88.83
19005;BME280;9635;52.078;8.648;2023-07-31T16:23:28;99390.50;;;16.87;88.14
19005;BME280;9635;52.078;8.648;2023-07-31T16:28:32;99379.63;;;17.01;87.27
19005;BME280;9635;52.078;8.648;2023-07-31T16:33:35;99364.31;;;17.30;86.34
19005;BME280;9635;52.078;8.648;2023-07-31T16:38:38;99374.19;;;17.38;85.41
19005;BME280;9635;52.078;8.648;2023-07-31T16:43:43;99359.53;;;17.32;85.20
19005;BME280;9635;52.078;8.648;2023-07-31T16:48:45;99329.88;;;17.31;84.48
19005;BME280;9635;52.078;8.648;2023-07-31T16:53:48;99346.53;;;17.28;84.29
19005;BME280;9635;52.078;8.648;2023-07-31T16:58:53;99320.56;;;17.18;86.71
19005;BME280;9635;52.078;8.648;2023-07-31T17:03:56;99320.56;;;16.67;88.09
19005;BME280;9635;52.078;8.648;2023-07-31T17:09:01;99325.75;;;16.47;89.18
19005;BME280;9635;52.078;8.648;2023-07-31T17:14:05;99310.00;;;16.72;88.03
19005;BME280;9635;52.078;8.648;2023-07-31T17:19:09;99314.63;;;16.42;91.19
19005;BME280;9635;52.078;8.648;2023-07-31T17:24:12;99294.66;;;16.43;89.69
19005;BME280;9635;52.078;8.648;2023-07-31T17:29:16;99288.94;;;16.38;91.02
19005;BME280;9635;52.078;8.648;2023-07-31T17:34:19;99286.22;;;16.53;90.59
19005;BME280;9635;52.078;8.648;2023-07-31T17:39:22;99295.59;;;16.87;88.85
19005;BME280;9635;52.078;8.648;2023-07-31T17:44:27;99286.75;;;16.63;90.75
19005;BME280;9635;52.078;8.648;2023-07-31T17:49:30;99274.03;;;16.64;91.66
19005;BME280;9635;52.078;8.648;2023-07-31T17:54:33;99268.16;;;16.45;92.73
19005;BME280;9635;52.078;8.648;2023-07-31T17:59:37;99264.53;;;16.23;94.40
19005;BME280;9635;52.078;8.648;2023-07-31T18:04:40;99257.03;;;16.55;93.49
19005;BME280;9635;52.078;8.648;2023-07-31T18:09:43;99245.97;;;16.35;93.73
19005;BME280;9635;52.078;8.648;2023-07-31T18:14:48;99240.44;;;16.28;94.72
19005;BME280;9635;52.078;8.648;2023-07-31T18:19:50;99243.81;;;16.30;94.52
19005;BME280;9635;52.078;8.648;2023-07-31T18:24:53;99231.75;;;16.33;94.71
19005;BME280;9635;52.078;8.648;2023-07-31T18:29:58;99234.56;;;16.10;95.51
19005;BME280;9635;52.078;8.648;2023-07-31T18:35:00;99242.00;;;16.23;95.45
19005;BME280;9635;52.078;8.648;2023-07-31T18:40:04;99237.00;;;16.05;95.67
19005;BME280;9635;52.078;8.648;2023-07-31T18:45:09;99226.09;;;15.83;96.72
19005;BME280;9635;52.078;8.648;2023-07-31T18:50:11;99228.41;;;16.01;96.16
19005;BME280;9635;52.078;8.648;2023-07-31T18:55:14;99215.50;;;15.74;97.38
19005;BME280;9635;52.078;8.648;2023-07-31T19:00:19;99224.22;;;15.69;97.04
19005;BME280;9635;52.078;8.648;2023-07-31T19:05:21;99208.97;;;15.68;97.82
19005;BME280;9635;52.078;8.648;2023-07-31T19:10:24;99226.13;;;15.60;98.06
19005;BME280;9635;52.078;8.648;2023-07-31T19:15:29;99202.56;;;15.84;96.17
19005;BME280;9635;52.078;8.648;2023-07-31T19:20:31;99206.38;;;15.75;96.34
19005;BME280;9635;52.078;8.648;2023-07-31T19:25:34;99184.34;;;15.78;95.88
19005;BME280;9635;52.078;8.648;2023-07-31T19:30:38;99182.00;;;15.45;97.62
19005;BME280;9635;52.078;8.648;2023-07-31T19:35:41;99183.97;;;15.66;96.08
19005;BME280;9635;52.078;8.648;2023-07-31T19:40:44;99179.78;;;15.63;96.72
19005;BME280;9635;52.078;8.648;2023-07-31T19:45:49;99164.75;;;15.61;96.95
19005;BME280;9635;52.078;8.648;2023-07-31T19:50:51;99162.44;;;15.58;97.72
19005;BME280;9635;52.078;8.648;2023-07-31T19:55:54;99161.50;;;15.27;99.06
19005;BME280;9635;52.078;8.648;2023-07-31T20:00:59;99143.56;;;15.50;97.26
19005;BME280;9635;52.078;8.648;2023-07-31T20:06:02;99138.19;;;15.26;98.42
19005;BME280;9635;52.078;8.648;2023-07-31T20:11:05;99129.63;;;15.23;99.48
19005;BME280;9635;52.078;8.648;2023-07-31T20:16:11;99127.75;;;15.09;100.00
19005;BME280;9635;52.078;8.648;2023-07-31T20:21:14;99101.44;;;15.17;99.25
19005;BME280;9635;52.078;8.648;2023-07-31T20:26:17;99090.66;;;15.62;96.32
19005;BME280;9635;52.078;8.648;2023-07-31T20:31:22;99068.25;;;15.23;99.08
19005;BME280;9635;52.078;8.648;2023-07-31T20:36:25;99047.25;;;15.25;97.92
19005;BME280;9635;52.078;8.648;2023-07-31T20:41:28;99059.00;;;15.33;97.43
19005;BME280;9635;52.078;8.648;2023-07-31T20:46:33;99071.88;;;15.01;100.00
19005;BME280;9635;52.078;8.648;2023-07-31T20:51:35;99051.91;;;15.02;99.13
19005;BME280;9635;52.078;8.648;2023-07-31T20:56:39;99033.47;;;15.35;97.39
19005;BME280;9635;52.078;8.648;2023-07-31T21:01:44;99046.50;;;15.02;99.05
19005;BME280;9635;52.078;8.648;2023-07-31T21:06:47;99016.59;;;15.03;100.00
19005;BME280;9635;52.078;8.648;2023-07-31T21:11:50;99005.56;;;15.05;99.79
19005;BME280;9635;52.078;8.648;2023-07-31T21:16:54;99003.31;;;15.23;98.36
19005;BME280;9635;52.078;8.648;2023-07-31T21:21:57;98999.59;;;15.24;99.27
19005;BME280;9635;52.078;8.648;2023-07-31T21:27:00;98991.22;;;15.04;100.00
19005;BME280;9635;52.078;8.648;2023-07-31T21:32:05;98997.44;;;15.05;99.79
19005;BME280;9635;52.078;8.648;2023-07-31T21:37:07;98997.94;;;15.09;99.44
19005;BME280;9635;52.078;8.648;2023-07-31T21:42:12;98977.47;;;15.36;98.13
19005;BME280;9635;52.078;8.648;2023-07-31T21:47:16;98985.81;;;14.90;100.00
19005;BME280;9635;52.078;8.648;2023-07-31T21:52:19;98970.03;;;15.38;100.00
19005;BME280;9635;52.078;8.648;2023-07-31T21:57:22;98977.09;;;15.54;97.86
19005;BME280;9635;52.078;8.648;2023-07-31T22:02:26;98952.31;;;15.05;100.00
19005;BME280;9635;52.078;8.648;2023-07-31T22:07:29;98961.59;;;15.33;99.39
19005;BME280;9635;52.078;8.648;2023-07-31T22:12:32;98933.50;;;15.12;100.00
19005;BME280;9635;52.078;8.648;2023-07-31T22:17:36;98940.78;;;14.82;100.00
19005;BME280;9635;52.078;8.648;2023-07-31T22:22:39;98943.16;;;15.21;100.00
19005;BME280;9635;52.078;8.648;2023-07-31T22:27:42;98946.69;;;15.22;100.00
19005;BME280;9635;52.078;8.648;2023-07-31T22:32:46;98924.47;;;14.90;100.00
19005;BME280;9635;52.078;8.648;2023-07-31T22:37:48;98919.31;;;15.10;100.00
19005;BME280;9635;52.078;8.648;2023-07-31T22:42:51;98919.97;;;15.12;100.00
19005;BME280;9635;52.078;8.648;2023-07-31T22:47:58;98902.88;;;15.26;100.00
19005;BME280;9635;52.078;8.648;2023-07-31T22:53:01;98891.66;;;15.44;98.28
19005;BME280;9635;52.078;8.648;2023-07-31T22:58:04;98878.75;;;15.10;99.25
19005;BME280;9635;52.078;8.648;2023-07-31T23:03:08;98857.13;;;15.10;97.39
19005;BME280;9635;52.078;8.648;2023-07-31T23:08:12;98876.03;;;15.25;98.11
19005;BME280;9635;52.078;8.648;2023-07-31T23:13:15;98877.59;;;15.34;98.65
19005;BME280;9635;52.078;8.648;2023-07-31T23:18:20;98874.81;;;15.49;97.77
19005;BME280;9635;52.078;8.648;2023-07-31T23:23:23;98849.69;;;15.34;98.78
19005;BME280;9635;52.078;8.648;2023-07-31T23:28:26;98830.31;;;15.52;97.27
19005;BME280;9635;52.078;8.648;2023-07-31T23:33:31;98833.09;;;15.58;96.49
19005;BME280;9635;52.078;8.648;2023-07-31T23:38:34;98824.16;;;15.58;96.94
19005;BME280;9635;52.078;8.648;2023-07-31T23:43:37;98825.50;;;15.47;97.84
19005;BME280;9635;52.078;8.648;2023-07-31T23:48:41;98819.22;;;15.46;97.62
19005;BME280;9635;52.078;8.648;2023-07-31T23:53:44;98806.38;;;15.12;99.51
19005;BME280;9635;52.078;8.648;2023-07-31T23:58:47;98802.19;;;15.10;98.84
